Northern Cambria, Pennsylvania
Current Conditions -  °F | °C
As of 5:15 AM on Tuesday 21 Oct 2014 (Local Time) from KIDI Reporting Station
Haze Haze  
Wind Chill: 46°   Ceiling: 700
Heat Index: 48°   Visibility: 5mi
Dew Point: 48°   Wind: 5mph
Humidity: 100%   Direction: 240°WSW
Pressure: 29.87"   Gusts: NA
Location:  40.6905°N, 78.7599°W
Report Text: KIDI 210915Z AUTO 24004KT 5SM BR OVC007 09/09 A2987 RMK A01
Loading
Personal Weather Stations






























Interactive Weather Map
Tropical Storm Tracking
New forecast layout! Learn more

10-Day Weather Forecast

Advertisements
Track Severe Weather on mobile